Sincere Salute — 7JNA — position and weather

sailwx.info

Track history (hours):
 
Tides and Currents Weather Stations Pressure Air Temp Water Temp Dewpoint Dewpoint Depression Visibility Wind Speed Wind Dir Waves Ship Positions

Sincere Salute

Last reported at 2017-Dec-29 04:14 UTC. Time now 2018-Jan-20 05:36 UTC.
Position S 27°40' E 153°54'.
Warning: this ship's position is 22 days out of date.

Length 228 m; draft 13.7 m.

Type: Ship. MMSI: 432883000.

Date/timePositionNaut miles runAvg speedWind from/ knotsBaromVisibWave heightAir tempDewpointWater temp
2017-Dec-29 04:14S 27°40' E 153°54'2 6.7
2017-Dec-29 03:58S 27°41' E 153°54'3 6.7
2017-Dec-29 03:30S 27°45' E 153°53'3 6.7
2017-Dec-29 03:00S 27°48' E 153°53'3 6.7
2017-Dec-29 02:30S 27°51' E 153°53'3 6.7
2017-Dec-29 02:00S 27°54' E 153°52'3 6.7
2017-Dec-29 01:30S 27°58' E 153°52'3 6.7
2017-Dec-29 01:00S 28°01' E 153°52'3 6.6
2017-Dec-29 00:30S 28°04' E 153°51'3 6.4
2017-Dec-29 00:00S 28°08' E 153°50'3 6.3
2017-Dec-28 23:30S 28°11' E 153°50'3 6.2
2017-Dec-28 23:00S 28°14' E 153°50'3 6.0
2017-Dec-28 22:29S 28°17' E 153°50'3 5.8
2017-Dec-28 22:00S 28°20' E 153°50'3 5.8
2017-Dec-28 21:30S 28°23' E 153°50'3 5.8
2017-Dec-28 21:00S 28°25' E 153°50'3 5.8
2017-Dec-28 20:30S 28°28' E 153°50'3 5.7
2017-Dec-28 19:59S 28°31' E 153°50'6 5.4
2017-Dec-28 18:52S 28°37' E 153°49'234 7.1
2017-Dec-27 09:56S 32°25' E 152°45'510.2
2017-Dec-27 09:25S 32°29' E 152°41'410.5
2017-Dec-27 09:00S 32°32' E 152°37'510.4
2017-Dec-27 08:30S 32°35' E 152°33'510.5
2017-Dec-27 08:01S 32°39' E 152°28'510.5
2017-Dec-27 07:30S 32°43' E 152°24'510.5
2017-Dec-27 07:00S 32°46' E 152°19'510.2
2017-Dec-27 06:30S 32°49' E 152°14'510.1
2017-Dec-27 06:00S 32°52' E 152°09'5 9.8
2017-Dec-27 05:30S 32°54' E 152°04'510.0
2017-Dec-27 05:00S 32°54' E 151°58'510.2
2017-Dec-27 04:30S 32°56' E 151°52'4 7.1
2017-Dec-27 04:00S 32°55' E 151°48'2 3.2
2017-Dec-27 03:28S 32°54' E 151°46'1 2.8
2017-Dec-27 03:00S 32°53' E 151°46'0 0.0
2017-Dec-26 12:48S 32°53' E 151°45'0 0.0
2017-Dec-26 12:30S 32°53' E 151°45'0 0.0
2017-Dec-26 11:51S 32°53' E 151°45'0 0.0
2017-Dec-26 11:03S 32°53' E 151°45'0 0.0
2017-Dec-26 09:45S 32°53' E 151°45'0 0.5
2017-Dec-26 09:31S 32°53' E 151°45'1 2.5
2017-Dec-26 09:01S 32°54' E 151°46'2 3.6
2017-Dec-26 08:31S 32°55' E 151°48'3 6.0
2017-Dec-26 08:01S 32°56' E 151°51'4 7.2
2017-Dec-26 07:31S 32°59' E 151°53'2 4.3
2017-Dec-26 07:01S 33°01' E 151°55'2 4.6
2017-Dec-26 06:31S 33°03' E 151°57'2 4.3
2017-Dec-26 06:01S 33°04' E 151°59'1 1.2
2017-Dec-26 05:31S 33°04' E 151°60'1 1.3
2017-Dec-26 05:00S 33°05' E 152°00'1 1.3
2017-Dec-26 04:31S 33°05' E 152°01'1 1.4
2017-Dec-26 04:00S 33°05' E 152°02'1 1.5
2017-Dec-26 03:30S 33°05' E 152°03'1 1.5
2017-Dec-26 03:01S 33°06' E 152°04'1 1.5
2017-Dec-26 02:30S 33°06' E 152°04'1 1.6
2017-Dec-26 02:01S 33°06' E 152°05'1 1.8
2017-Dec-26 01:30S 33°07' E 152°06'0 1.0
2017-Dec-26 01:01S 33°07' E 152°05'5 9.9
2017-Dec-26 00:31S 33°05' E 151°60'3 5.4
2017-Dec-25 23:58S 33°04' E 151°57'2 1.9
2017-Dec-25 23:05S 33°04' E 151°59'0 2.1
2017-Dec-25 22:55S 33°04' E 151°59'1 2.0
2017-Dec-25 22:25S 33°05' E 152°00'1 2.0
2017-Dec-25 21:56S 33°05' E 152°01'1 1.9
2017-Dec-25 21:31S 33°05' E 152°02'1 2.4
2017-Dec-25 21:01S 33°04' E 152°02'4 9.0
2017-Dec-25 20:31S 32°59' E 152°01'4 7.8
2017-Dec-25 20:01S 32°56' E 152°02'611.7
2017-Dec-25 19:30S 32°53' E 152°09'611.5
2017-Dec-25 19:01S 32°51' E 152°15'5 9.4
2017-Dec-25 18:31S 32°48' E 152°19'3 6.8
2017-Dec-25 18:01S 32°46' E 152°22'3 6.8
2017-Dec-25 17:31S 32°44' E 152°25'3 6.8
2017-Dec-25 17:01S 32°41' E 152°28'3 6.5
2017-Dec-25 16:31S 32°39' E 152°31'3 6.4
2017-Dec-25 16:01S 32°37' E 152°34'3 6.6
2017-Dec-25 15:31S 32°35' E 152°37'5 6.3
2017-Dec-25 14:44S 32°30' E 152°40'3 6.9
2017-Dec-25 14:16S 32°27' E 152°41'2 6.9
2017-Dec-25 14:00S 32°26' E 152°42'24211.2
2017-Dec-24 16:26S 28°31' E 153°53'614.4
2017-Dec-24 16:00S 28°25' E 153°53'714.2
2017-Dec-24 15:30S 28°18' E 153°53'714.1
2017-Dec-24 15:00S 28°11' E 153°54'714.0
2017-Dec-24 14:30S 28°04' E 153°54'713.8
2017-Dec-24 14:00S 27°57' E 153°54'713.5
2017-Dec-24 13:29S 27°50' E 153°54'713.2
2017-Dec-24 12:56S 27°43' E 153°54'913.4
2017-Dec-24 12:14S 27°33' E 153°54'313.5
2017-Dec-24 12:00S 27°30' E 153°54'713.4
2017-Dec-24 11:30S 27°24' E 153°55'713.5
2017-Dec-24 11:00S 27°17' E 153°55'713.5
2017-Dec-24 10:28S 27°09' E 153°56'714.3
2017-Dec-24 09:57S 27°02' E 153°56'613.4
2017-Dec-24 09:31S 26°56' E 153°56'714.4
2017-Dec-24 09:00S 26°49' E 153°56'913.6
2017-Dec-24 08:22S 26°40' E 153°56'3314.5
2017-Dec-24 06:03S 26°07' E 153°57'112.1
2017-Dec-24 05:59S 26°06' E 153°57'  
Track history (hours):
 
Tides and Currents Weather Stations Pressure Air Temp Water Temp Dewpoint Dewpoint Depression Visibility Wind Speed Wind Dir Waves Ship Positions

Sincere Salute

Last reported at 2017-Dec-29 04:14 UTC. Time now 2018-Jan-20 05:36 UTC.
Position S 27°40' E 153°54'.
Warning: this ship's position is 22 days out of date.

Length 228 m; draft 13.7 m.

Type: Ship. MMSI: 432883000.

Date/timePositionNaut miles runAvg speedWind from/ knotsBaromVisibWave heightAir tempDewpointWater temp
2017-Dec-29 04:14S 27°40' E 153°54'2 6.7
2017-Dec-29 03:58S 27°41' E 153°54'3 6.7
2017-Dec-29 03:30S 27°45' E 153°53'3 6.7
2017-Dec-29 03:00S 27°48' E 153°53'3 6.7
2017-Dec-29 02:30S 27°51' E 153°53'3 6.7
2017-Dec-29 02:00S 27°54' E 153°52'3 6.7
2017-Dec-29 01:30S 27°58' E 153°52'3 6.7
2017-Dec-29 01:00S 28°01' E 153°52'3 6.6
2017-Dec-29 00:30S 28°04' E 153°51'3 6.4
2017-Dec-29 00:00S 28°08' E 153°50'3 6.3
2017-Dec-28 23:30S 28°11' E 153°50'3 6.2
2017-Dec-28 23:00S 28°14' E 153°50'3 6.0
2017-Dec-28 22:29S 28°17' E 153°50'3 5.8
2017-Dec-28 22:00S 28°20' E 153°50'3 5.8
2017-Dec-28 21:30S 28°23' E 153°50'3 5.8
2017-Dec-28 21:00S 28°25' E 153°50'3 5.8
2017-Dec-28 20:30S 28°28' E 153°50'3 5.7
2017-Dec-28 19:59S 28°31' E 153°50'6 5.4
2017-Dec-28 18:52S 28°37' E 153°49'234 7.1
2017-Dec-27 09:56S 32°25' E 152°45'510.2
2017-Dec-27 09:25S 32°29' E 152°41'410.5
2017-Dec-27 09:00S 32°32' E 152°37'510.4
2017-Dec-27 08:30S 32°35' E 152°33'510.5
2017-Dec-27 08:01S 32°39' E 152°28'510.5
2017-Dec-27 07:30S 32°43' E 152°24'510.5
2017-Dec-27 07:00S 32°46' E 152°19'510.2
2017-Dec-27 06:30S 32°49' E 152°14'510.1
2017-Dec-27 06:00S 32°52' E 152°09'5 9.8
2017-Dec-27 05:30S 32°54' E 152°04'510.0
2017-Dec-27 05:00S 32°54' E 151°58'510.2
2017-Dec-27 04:30S 32°56' E 151°52'4 7.1
2017-Dec-27 04:00S 32°55' E 151°48'2 3.2
2017-Dec-27 03:28S 32°54' E 151°46'1 2.8
2017-Dec-27 03:00S 32°53' E 151°46'0 0.0
2017-Dec-26 12:48S 32°53' E 151°45'0 0.0
2017-Dec-26 12:30S 32°53' E 151°45'0 0.0
2017-Dec-26 11:51S 32°53' E 151°45'0 0.0
2017-Dec-26 11:03S 32°53' E 151°45'0 0.0
2017-Dec-26 09:45S 32°53' E 151°45'0 0.5
2017-Dec-26 09:31S 32°53' E 151°45'1 2.5
2017-Dec-26 09:01S 32°54' E 151°46'2 3.6
2017-Dec-26 08:31S 32°55' E 151°48'3 6.0
2017-Dec-26 08:01S 32°56' E 151°51'4 7.2
2017-Dec-26 07:31S 32°59' E 151°53'2 4.3
2017-Dec-26 07:01S 33°01' E 151°55'2 4.6
2017-Dec-26 06:31S 33°03' E 151°57'2 4.3
2017-Dec-26 06:01S 33°04' E 151°59'1 1.2
2017-Dec-26 05:31S 33°04' E 151°60'1 1.3
2017-Dec-26 05:00S 33°05' E 152°00'1 1.3
2017-Dec-26 04:31S 33°05' E 152°01'1 1.4
2017-Dec-26 04:00S 33°05' E 152°02'1 1.5
2017-Dec-26 03:30S 33°05' E 152°03'1 1.5
2017-Dec-26 03:01S 33°06' E 152°04'1 1.5
2017-Dec-26 02:30S 33°06' E 152°04'1 1.6
2017-Dec-26 02:01S 33°06' E 152°05'1 1.8
2017-Dec-26 01:30S 33°07' E 152°06'0 1.0
2017-Dec-26 01:01S 33°07' E 152°05'5 9.9
2017-Dec-26 00:31S 33°05' E 151°60'3 5.4
2017-Dec-25 23:58S 33°04' E 151°57'2 1.9
2017-Dec-25 23:05S 33°04' E 151°59'0 2.1
2017-Dec-25 22:55S 33°04' E 151°59'1 2.0
2017-Dec-25 22:25S 33°05' E 152°00'1 2.0
2017-Dec-25 21:56S 33°05' E 152°01'1 1.9
2017-Dec-25 21:31S 33°05' E 152°02'1 2.4
2017-Dec-25 21:01S 33°04' E 152°02'4 9.0
2017-Dec-25 20:31S 32°59' E 152°01'4 7.8
2017-Dec-25 20:01S 32°56' E 152°02'611.7
2017-Dec-25 19:30S 32°53' E 152°09'611.5
2017-Dec-25 19:01S 32°51' E 152°15'5 9.4
2017-Dec-25 18:31S 32°48' E 152°19'3 6.8
2017-Dec-25 18:01S 32°46' E 152°22'3 6.8
2017-Dec-25 17:31S 32°44' E 152°25'3 6.8
2017-Dec-25 17:01S 32°41' E 152°28'3 6.5
2017-Dec-25 16:31S 32°39' E 152°31'3 6.4
2017-Dec-25 16:01S 32°37' E 152°34'3 6.6
2017-Dec-25 15:31S 32°35' E 152°37'5 6.3
2017-Dec-25 14:44S 32°30' E 152°40'3 6.9
2017-Dec-25 14:16S 32°27' E 152°41'2 6.9
2017-Dec-25 14:00S 32°26' E 152°42'24211.2
2017-Dec-24 16:26S 28°31' E 153°53'614.4
2017-Dec-24 16:00S 28°25' E 153°53'714.2
2017-Dec-24 15:30S 28°18' E 153°53'714.1
2017-Dec-24 15:00S 28°11' E 153°54'714.0
2017-Dec-24 14:30S 28°04' E 153°54'713.8
2017-Dec-24 14:00S 27°57' E 153°54'713.5
2017-Dec-24 13:29S 27°50' E 153°54'713.2
2017-Dec-24 12:56S 27°43' E 153°54'913.4
2017-Dec-24 12:14S 27°33' E 153°54'313.5
2017-Dec-24 12:00S 27°30' E 153°54'713.4
2017-Dec-24 11:30S 27°24' E 153°55'713.5
2017-Dec-24 11:00S 27°17' E 153°55'713.5
2017-Dec-24 10:28S 27°09' E 153°56'714.3
2017-Dec-24 09:57S 27°02' E 153°56'613.4
2017-Dec-24 09:31S 26°56' E 153°56'714.4
2017-Dec-24 09:00S 26°49' E 153°56'913.6
2017-Dec-24 08:22S 26°40' E 153°56'3314.5
2017-Dec-24 06:03S 26°07' E 153°57'112.1
2017-Dec-24 05:59S 26°06' E 153°57'  

Dump ship's entire track history